Map

Track Data

SID SEASON NUMBER BASIN SUBBASIN NAME ISO_TIME NATURE LAT LON WMO_WIND WMO_PRES WMO_AGENCY TRACK_TYPE DIST2LAND LANDFALL IFLAG USA_AGENCY USA_ATCF_ID USA_LAT USA_LON USA_RECORD USA_STATUS USA_WIND USA_PRES USA_SSHS USA_R34_NE USA_R34_SE USA_R34_SW USA_R34_NW USA_R50_NE USA_R50_SE USA_R50_SW USA_R50_NW USA_R64_NE USA_R64_SE USA_R64_SW USA_R64_NW USA_POCI USA_ROCI USA_RMW USA_EYE TOKYO_LAT TOKYO_LON TOKYO_GRADE TOKYO_WIND TOKYO_PRES TOKYO_R50_DIR TOKYO_R50_LONG TOKYO_R50_SHORT TOKYO_R30_DIR TOKYO_R30_LONG TOKYO_R30_SHORT TOKYO_LAND CMA_LAT CMA_LON CMA_CAT CMA_WIND CMA_PRES HKO_LAT HKO_LON HKO_CAT HKO_WIND HKO_PRES NEWDELHI_LAT NEWDELHI_LON NEWDELHI_GRADE NEWDELHI_WIND NEWDELHI_PRES NEWDELHI_CI NEWDELHI_DP NEWDELHI_POCI REUNION_LAT REUNION_LON REUNION_TYPE REUNION_WIND REUNION_PRES REUNION_TNUM REUNION_CI REUNION_RMW REUNION_R34_NE REUNION_R34_SE REUNION_R34_SW REUNION_R34_NW REUNION_R50_NE REUNION_R50_SE REUNION_R50_SW REUNION_R50_NW REUNION_R64_NE REUNION_R64_SE REUNION_R64_SW REUNION_R64_NW BOM_LAT BOM_LON BOM_TYPE BOM_WIND BOM_PRES BOM_TNUM BOM_CI BOM_RMW BOM_R34_NE BOM_R34_SE BOM_R34_SW BOM_R34_NW BOM_R50_NE BOM_R50_SE BOM_R50_SW BOM_R50_NW BOM_R64_NE BOM_R64_SE BOM_R64_SW BOM_R64_NW BOM_ROCI BOM_POCI BOM_EYE BOM_POS_METHOD BOM_PRES_METHOD NADI_LAT NADI_LON NADI_CAT NADI_WIND NADI_PRES WELLINGTON_LAT WELLINGTON_LON WELLINGTON_WIND WELLINGTON_PRES DS824_LAT DS824_LON DS824_STAGE DS824_WIND DS824_PRES TD9636_LAT TD9636_LON TD9636_STAGE TD9636_WIND TD9636_PRES TD9635_LAT TD9635_LON TD9635_WIND TD9635_PRES TD9635_ROCI NEUMANN_LAT NEUMANN_LON NEUMANN_CLASS NEUMANN_WIND NEUMANN_PRES MLC_LAT MLC_LON MLC_CLASS MLC_WIND MLC_PRES USA_GUST BOM_GUST BOM_GUST_PER REUNION_GUST REUNION_GUST_PER USA_SEAHGT USA_SEARAD_NE USA_SEARAD_SE USA_SEARAD_SW USA_SEARAD_NW STORM_SPEED STORM_DIR
1989190N13261 1989 55 EP MM DALILIA 1989-07-09 00:00:00 NR 13.0000 -99.3000 main 372 372 O_____________ jtwc_ep EP061989 13.0000 -99.3000 25 -1 6 202
1989190N13261 1989 55 EP MM DALILIA 1989-07-09 03:00:00 NR 12.7175 -99.4126 main 407 407 P_____________ EP061989 12.7175 -99.4126 25 -1 6 210
1989190N13261 1989 55 EP MM DALILIA 1989-07-09 06:00:00 NR 12.5000 -99.6000 main 437 437 O_____________ jtwc_ep EP061989 12.5000 -99.6000 25 -1 6 236
1989190N13261 1989 55 EP MM DALILIA 1989-07-09 09:00:00 NR 12.3850 -99.9124 main 458 458 P_____________ EP061989 12.3850 -99.9124 25 -1 7 254
1989190N13261 1989 55 EP MM DALILIA 1989-07-09 12:00:00 NR 12.3000 -100.300 main 483 483 O_____________ jtwc_ep EP061989 12.3000 -100.300 25 -1 8 253
1989190N13261 1989 55 EP MM DALILIA 1989-07-09 15:00:00 NR 12.1499 -100.678 main 521 521 P_____________ EP061989 12.1499 -100.678 25 -1 8 249
1989190N13261 1989 55 EP MM DALILIA 1989-07-09 18:00:00 NR 12.0000 -101.100 main 547 547 O_____________ jtwc_ep EP061989 12.0000 -101.100 25 -1 9 254
1989190N13261 1989 55 EP MM DALILIA 1989-07-09 21:00:00 NR 11.9000 -101.585 main 575 575 P_____________ EP061989 11.9000 -101.585 25 -1 10 258
1989190N13261 1989 55 EP MM DALILIA 1989-07-10 00:00:00 NR 11.8000 -102.100 main 606 606 O_____________ jtwc_ep EP061989 11.8000 -102.100 25 -1 10 256
1989190N13261 1989 55 EP MM DALILIA 1989-07-10 03:00:00 NR 11.6499 -102.593 main 650 650 P_____________ EP061989 11.6499 -102.593 25 -1 10 253
1989190N13261 1989 55 EP MM DALILIA 1989-07-10 06:00:00 NR 11.5000 -103.100 main 684 684 O_____________ jtwc_ep EP061989 11.5000 -103.100 25 -1 11 256
1989190N13261 1989 55 EP MM DALILIA 1989-07-10 09:00:00 NR 11.3999 -103.635 main 713 713 P_____________ EP061989 11.3999 -103.635 25 -1 11 259
1989190N13261 1989 55 EP MM DALILIA 1989-07-10 12:00:00 NR 11.3000 -104.200 main 750 750 O_____________ jtwc_ep EP061989 11.3000 -104.200 25 -1 12 258
1989190N13261 1989 55 EP MM DALILIA 1989-07-10 15:00:00 NR 11.1575 -104.800 main 790 790 P_____________ EP061989 11.1575 -104.800 27 -1 12 256
1989190N13261 1989 55 EP MM DALILIA 1989-07-10 18:00:00 NR 11.0000 -105.400 main 839 839 O_____________ jtwc_ep EP061989 11.0000 -105.400 30 -1 12 255
1989190N13261 1989 55 EP MM DALILIA 1989-07-10 21:00:00 NR 10.8498 -105.950 main 877 877 P_____________ EP061989 10.8498 -105.950 30 -1 11 254
1989190N13261 1989 55 EP MM DALILIA 1989-07-11 00:00:00 NR 10.7000 -106.500 main 909 909 O_____________ jtwc_ep EP061989 10.7000 -106.500 30 -1 12 255
1989190N13261 1989 55 EP MM DALILIA 1989-07-11 03:00:00 NR 10.5500 -107.100 main 955 955 P_____________ EP061989 10.5500 -107.100 30 -1 12 256
1989190N13261 1989 55 EP MM DALILIA 1989-07-11 06:00:00 NR 10.4000 -107.700 main 993 993 O_____________ jtwc_ep EP061989 10.4000 -107.700 30 -1 12 255
1989190N13261 1989 55 EP MM DALILIA 1989-07-11 09:00:00 NR 10.2349 -108.258 main 1043 1043 P_____________ EP061989 10.2349 -108.258 27 -1 11 255
1989190N13261 1989 55 EP MM DALILIA 1989-07-11 12:00:00 TS 10.1000 -108.800 25 1014 hurdat_epa main 1081 1081 O_________O___ hurdat_epa EP061989 10.1000 -108.800 TD 25 1014 -1 10.1000 -108.800 1 25 11 260
1989190N13261 1989 55 EP MM DALILIA 1989-07-11 15:00:00 TS 10.0430 -109.350 main 1119 1119 P_________P___ EP061989 10.0124 -109.358 TD 25 1013 -1 10.1395 -109.304 1 25 11 267
1989190N13261 1989 55 EP MM DALILIA 1989-07-11 18:00:00 TS 10.0399 -109.881 25 1013 hurdat_epa main 1157 1154 O_________P___ hurdat_epa EP061989 10.0000 -109.900 TD 25 1013 -1 10.1729 -109.817 1 25 10 273
1989190N13261 1989 55 EP MM DALILIA 1989-07-11 21:00:00 TS 10.1005 -110.381 main 1181 1181 P_________P___ EP061989 10.1073 -110.392 TD 25 1012 -1 10.1949 -110.346 1 25 10 276
1989190N13261 1989 55 EP MM DALILIA 1989-07-12 00:00:00 TS 10.1500 -110.900 25 1012 hurdat_epa main 1201 1201 O_________O___ hurdat_epa EP061989 10.2000 -110.900 TD 25 1012 -1 10.2000 -110.900 1 25 11 270
1989190N13261 1989 55 EP MM DALILIA 1989-07-12 03:00:00 TS 10.0929 -111.485 main 1247 1247 P_________P___ EP061989 10.1000 -111.485 TD 27 1011 -1 10.1868 -111.483 1 26 12 265
1989190N13261 1989 55 EP MM DALILIA 1989-07-12 06:00:00 TS 10.0425 -112.096 30 1010 hurdat_epa main 1294 1294 O_________P___ hurdat_epa EP061989 10.0000 -112.100 TD 30 1010 -1 10.1699 -112.086 1 27 12 270
1989190N13261 1989 55 EP MM DALILIA 1989-07-12 09:00:00 TS 10.0982 -112.699 main 1326 1326 P_________P___ EP061989 10.0699 -112.700 TD 30 1009 -1 10.1680 -112.695 1 28 12 278
1989190N13261 1989 55 EP MM DALILIA 1989-07-12 12:00:00 TS 10.2000 -113.300 30 1008 hurdat_epa main 1359 1359 O_________O___ hurdat_epa EP061989 10.2000 -113.300 TD 30 1008 -1 10.2000 -113.300 1 30 12 279
1989190N13261 1989 55 EP MM DALILIA 1989-07-12 15:00:00 TS 10.2905 -113.899 main 1395 1395 P_________P___ EP061989 10.2924 -113.908 TD 32 1006 -1 10.2845 -113.874 1 33 12 280
1989190N13261 1989 55 EP MM DALILIA 1989-07-12 18:00:00 TS 10.4011 -114.486 35 1005 hurdat_epa main 1433 1433 O_________P___ hurdat_epa EP061989 10.4000 -114.500 TS 35 1005 0 10.4044 -114.442 1 37 11 283
1989190N13261 1989 55 EP MM DALILIA 1989-07-12 21:00:00 TS 10.5435 -115.036 main 1463 1463 P_________P___ EP061989 10.5423 -115.043 TS 40 1001 0 10.5470 -115.015 1 41 11 285
1989190N13261 1989 55 EP MM DALILIA 1989-07-13 00:00:00 TS 10.7000 -115.600 45 998 hurdat_epa main 1489 1487 O_________O___ hurdat_epa EP061989 10.7000 -115.600 TS 45 998 0 10.7000 -115.600 2 45 12 284
1989190N13261 1989 55 EP MM DALILIA 1989-07-13 03:00:00 TS 10.8427 -116.233 main 1505 1500 P_________P___ EP061989 10.8500 -116.243 TS 50 996 0 10.8208 -116.206 2 48 13 283
1989190N13261 1989 55 EP MM DALILIA 1989-07-13 06:00:00 TS 10.9880 -116.882 55 994 hurdat_epa main 1519 1519 O_________P___ hurdat_epa EP061989 11.0000 -116.900 TS 55 994 0 10.9520 -116.827 2 52 13 283
1989190N13261 1989 55 EP MM DALILIA 1989-07-13 09:00:00 TS 11.1279 -117.490 main 1541 1537 P_________P___ EP061989 11.1348 -117.500 TS 57 992 0 11.1071 -117.459 2 56 12 285
1989190N13261 1989 55 EP MM DALILIA 1989-07-13 12:00:00 TS 11.3000 -118.100 60 991 hurdat_epa main 1556 1556 O_________O___ hurdat_epa EP061989 11.3000 -118.100 TS 60 991 0 11.3000 -118.100 2 60 13 288
1989190N13261 1989 55 EP MM DALILIA 1989-07-13 15:00:00 TS 11.5362 -118.744 main 1574 1571 P_________P___ EP061989 11.5349 -118.743 TS 62 990 0 11.5401 -118.748 2 62 14 291
1989190N13261 1989 55 EP MM DALILIA 1989-07-13 18:00:00 TS 11.8000 -119.400 65 989 hurdat_epa main 1591 1589 O_________O___ hurdat_epa EP061989 11.8000 -119.400 HU 65 989 1 11.8000 -119.400 3 65 14 293
1989190N13261 1989 55 EP MM DALILIA 1989-07-13 21:00:00 TS 12.0709 -120.043 main 1606 1606 P_________P___ EP061989 12.0723 -120.042 HU 65 988 1 12.0669 -120.045 3 65 14 291
1989190N13261 1989 55 EP MM DALILIA 1989-07-14 00:00:00 TS 12.3000 -120.700 65 987 hurdat_epa main 1639 1639 O_________O___ hurdat_epa EP061989 12.3000 -120.700 HU 65 987 1 12.3000 -120.700 4 65 14 285
1989190N13261 1989 55 EP MM DALILIA 1989-07-14 03:00:00 TS 12.4290 -121.389 main 1683 1683 P_________P___ EP061989 12.4299 -121.393 HU 65 986 1 12.4262 -121.378 4 66 14 278
1989190N13261 1989 55 EP MM DALILIA 1989-07-14 06:00:00 TS 12.4968 -122.094 65 986 hurdat_epa main 1722 1722 O_________P___ hurdat_epa EP061989 12.5000 -122.100 HU 65 986 1 12.4870 -122.074 4 67 14 275
1989190N13261 1989 55 EP MM DALILIA 1989-07-14 09:00:00 TS 12.5391 -122.796 main 1768 1768 P_________P___ EP061989 12.5423 -122.800 HU 67 985 1 12.5293 -122.783 4 68 14 274
1989190N13261 1989 55 EP MM DALILIA 1989-07-14 12:00:00 TS 12.6000 -123.500 70 985 hurdat_epa main 1807 1807 O_________O___ hurdat_epa EP061989 12.6000 -123.500 HU 70 985 1 12.6000 -123.500 4 70 14 278
1989190N13261 1989 55 EP MM DALILIA 1989-07-14 15:00:00 TS 12.7348 -124.198 main 1848 1847 P_________P___ EP061989 12.7198 -124.193 HU 70 984 1 12.7797 -124.213 4 70 14 283
1989190N13261 1989 55 EP MM DALILIA 1989-07-14 18:00:00 TS 12.9229 -124.909 70 983 hurdat_epa main 1883 1883 O_________P___ hurdat_epa EP061989 12.9000 -124.900 HU 70 983 1 12.9917 -124.934 4 70 15 287
1989190N13261 1989 55 EP MM DALILIA 1989-07-14 21:00:00 TS 13.1643 -125.648 main 1912 1912 P_________P___ EP061989 13.1498 -125.642 HU 70 982 1 13.2078 -125.663 4 70 15 288
1989190N13261 1989 55 EP MM DALILIA 1989-07-15 00:00:00 TS 13.4000 -126.400 70 982 hurdat_epa main 1959 1959 O_________O___ hurdat_epa EP061989 13.4000 -126.400 HU 70 982 1 13.4000 -126.400 4 70 15 286
1989190N13261 1989 55 EP MM DALILIA 1989-07-15 03:00:00 TS 13.5687 -127.146 main 2001 2001 P_________P___ EP061989 13.5798 -127.150 HU 72 981 1 13.5356 -127.134 4 71 15 281
1989190N13261 1989 55 EP MM DALILIA 1989-07-15 06:00:00 TS 13.6857 -127.894 75 981 hurdat_epa main 2058 2058 O_________P___ hurdat_epa EP061989 13.7000 -127.900 HU 75 981 1 13.6430 -127.876 4 72 15 278
1989190N13261 1989 55 EP MM DALILIA 1989-07-15 09:00:00 TS 13.7614 -128.645 main 2097 2097 P_________P___ EP061989 13.7723 -128.650 HU 75 980 1 13.7289 -128.630 4 73 15 274
1989190N13261 1989 55 EP MM DALILIA 1989-07-15 12:00:00 TS 13.8000 -129.400 75 980 hurdat_epa main 2154 2154 O_________O___ hurdat_epa EP061989 13.8000 -129.400 HU 75 980 1 13.8000 -129.400 4 75 15 272
1989190N13261 1989 55 EP MM DALILIA 1989-07-15 15:00:00 TS 13.8202 -130.166 main 2212 2212 P_________P___ EP061989 13.8073 -130.158 HU 75 979 1 13.8586 -130.189 4 15 271
1989190N13261 1989 55 EP MM DALILIA 1989-07-15 18:00:00 TS 13.8247 -130.925 75 979 hurdat_epa main 2264 2264 O_________P___ hurdat_epa EP061989 13.8000 -130.900 HU 75 979 1 13.8986 -130.998 4 14 270
1989190N13261 1989 55 EP MM DALILIA 1989-07-15 21:00:00 TS 13.8306 -131.645 main 2317 2317 P_________P___ EP061989 13.7995 -131.585 HU 75 979 1 13.9238 -131.825 4 14 270
1989190N13261 1989 55 EP MM DALILIA 1989-07-16 00:00:00 TS 13.8345 -132.392 75 979 hurdat_epa main 2379 2379 O_________P___ hurdat_epa EP061989 13.8000 -132.300 HU 75 979 1 13.9379 -132.668 4 15 270
1989190N13261 1989 55 EP MM DALILIA 1989-07-16 03:00:00 TS 13.8304 -133.221 main 2386 2304 P_________P___ EP061989 13.7923 -133.120 HU 75 978 1 13.9445 -133.525 4 17 270
1989190N13261 1989 55 EP MM DALILIA 1989-07-16 06:00:00 TS 13.8368 -134.099 75 978 hurdat_epa main 2294 2208 O_________P___ hurdat_epa EP061989 13.8000 -134.000 HU 75 978 1 13.9474 -134.395 4 17 271
1989190N13261 1989 55 EP MM DALILIA 1989-07-16 09:00:00 TS 13.8691 -134.971 main 2198 2117 P_________P___ EP061989 13.8420 -134.870 HU 77 978 1 13.9504 -135.276 4 17 273
1989190N13261 1989 55 EP MM DALILIA 1989-07-16 12:00:00 TS 13.9143 -135.892 80 978 hurdat_epa main 2107 2011 O_________P___ hurdat_epa EP061989 13.9000 -135.800 HU 80 978 1 13.9573 -136.166 4 19 273
1989190N13261 1989 55 EP MM DALILIA 1989-07-16 15:00:00 TS 13.9555 -136.898 main 2001 1900 P_________P___ EP061989 13.9500 -136.843 HU 80 977 1 13.9718 -137.065 4 20 272
1989190N13261 1989 55 EP MM DALILIA 1989-07-16 18:00:00 TS 13.9995 -137.918 80 977 hurdat_epa main 1900 1810 O_________P___ hurdat_epa EP061989 14.0000 -137.900 HU 80 977 1 13.9979 -137.971 4 19 272
1989190N13261 1989 55 EP MM DALILIA 1989-07-16 21:00:00 TS 14.0356 -138.864 main 1800 1716 P_________P___ EP061989 14.0344 -138.858 HU 77 977 1 14.0393 -138.883 4 18 273
1989190N13261 1989 55 EP MM DALILIA 1989-07-17 00:00:00 TS 14.1000 -139.800 75 977 hurdat_epa main 1706 1612 O_________O___ hurdat_epa EP061989 14.1000 -139.800 HU 75 977 1 14.1000 -139.800 4 75 19 276
1989190N13261 1989 55 EP CP DALILIA 1989-07-17 03:00:00 TS 14.2360 -140.795 main 1603 1505 P_________P___ EP061989 14.2499 -140.815 HU 70 1 14.1940 -140.736 4 72 19 278
1989190N13261 1989 55 EP CP DALILIA 1989-07-17 06:00:00 TS 14.3758 -141.770 65 hurdat_epa main 1495 1417 O_________P___ hurdat_epa EP061989 14.4000 -141.800 HU 65 1 14.2970 -141.674 4 70 18 276
1989190N13261 1989 55 EP CP DALILIA 1989-07-17 09:00:00 TS 14.4358 -142.654 main 1407 1325 P_________P___ EP061989 14.4494 -142.673 HU 65 1 14.4014 -142.601 4 67 17 274
1989190N13261 1989 55 EP CP DALILIA 1989-07-17 12:00:00 TS 14.5000 -143.500 65 hurdat_epa main 1325 1243 O_________O___ hurdat_epa EP061989 14.5000 -143.500 HU 65 1 14.5000 -143.500 4 65 17 277
1989190N13261 1989 55 EP CP DALILIA 1989-07-17 15:00:00 TS 14.6445 -144.362 main 1233 1147 P_________P___ EP061989 14.6573 -144.357 HU 65 1 14.5936 -144.382 4 65 17 279
1989190N13261 1989 55 EP CP DALILIA 1989-07-17 18:00:00 TS 14.7758 -145.206 65 hurdat_epa main 1147 1072 O_________P___ hurdat_epa EP061989 14.8000 -145.200 HU 65 1 14.6792 -145.232 4 65 16 276
1989190N13261 1989 55 EP CP DALILIA 1989-07-17 21:00:00 TS 14.8079 -146.029 main 1072 999 P_________P___ EP061989 14.8223 -146.023 HU 65 1 14.7501 -146.041 4 65 15 271
1989190N13261 1989 55 EP CP DALILIA 1989-07-18 00:00:00 TS 14.8000 -146.800 65 hurdat_epa main 999 937 O_________O___ hurdat_epa EP061989 14.8000 -146.800 HU 65 1 14.8000 -146.800 4 65 14 270
1989190N13261 1989 55 EP CP DALILIA 1989-07-18 03:00:00 TS 14.8086 -147.515 main 937 884 P_________P___ EP061989 14.7998 -147.530 HU 65 1 14.8292 -147.549 4 65 13 270
1989190N13261 1989 55 EP CP DALILIA 1989-07-18 06:00:00 TS 14.8074 -148.169 65 hurdat_epa main 876 826 O_________P___ hurdat_epa EP061989 14.8000 -148.200 HU 65 1 14.8370 -148.243 4 65 13 270
1989190N13261 1989 55 EP CP DALILIA 1989-07-18 09:00:00 TS 14.8063 -148.818 main 826 786 P_________P___ EP061989 14.8301 -148.882 HU 65 1 14.8264 -148.865 4 65 11 268
1989190N13261 1989 55 EP CP DALILIA 1989-07-18 12:00:00 TS 14.7600 -149.340 65 hurdat_epa main 786 778 O_________O___ hurdat_epa EP061989 14.8000 -149.400 HU 65 1 14.8000 -149.400 4 65 8 254
1989190N13261 1989 55 EP CP DALILIA 1989-07-18 15:00:00 TS 14.5859 -149.603 main 778 771 P_________P___ EP061989 14.5845 -149.558 HU 65 1 14.7063 -149.825 4 65 6 236
1989190N13261 1989 55 EP CP DALILIA 1989-07-18 18:00:00 TS 14.4417 -149.834 65 hurdat_epa main 778 742 O_________P___ hurdat_epa EP061989 14.4000 -149.700 HU 65 1 14.6085 -150.169 4 65 7 259
1989190N13261 1989 55 EP CP DALILIA 1989-07-18 21:00:00 TS 14.4545 -150.292 main 733 690 P_________P___ EP061989 14.4253 -150.212 HU 65 1 14.5565 -150.478 4 65 10 280
1989190N13261 1989 55 EP CP DALILIA 1989-07-19 00:00:00 TS 14.6000 -150.800 65 hurdat_epa main 690 645 O_________O___ hurdat_epa EP061989 14.6000 -150.800 HU 65 1 14.6000 -150.800 4 65 10 294
1989190N13261 1989 55 EP CP DALILIA 1989-07-19 03:00:00 TS 14.8531 -151.210 main 636 583 P_________P___ EP061989 14.8698 -151.215 HU 65 1 14.7866 -151.163 4 65 10 306
1989190N13261 1989 55 EP CP DALILIA 1989-07-19 06:00:00 TS 15.1743 -151.611 65 hurdat_epa main 583 531 O_________P___ hurdat_epa EP061989 15.2000 -151.600 HU 65 1 15.0715 -151.553 4 65 10 307
1989190N13261 1989 55 EP CP DALILIA 1989-07-19 09:00:00 TS 15.4720 -152.052 main 524 472 P_________P___ EP061989 15.4849 -152.028 HU 65 1 15.4207 -151.992 4 65 11 305
1989190N13261 1989 55 EP CP DALILIA 1989-07-19 12:00:00 TS 15.8000 -152.540 65 hurdat_epa main 472 406 O_________O___ hurdat_epa EP061989 15.8000 -152.500 HU 65 1 15.8000 -152.500 4 65 12 306
1989190N13261 1989 55 EP CP DALILIA 1989-07-19 15:00:00 TS 16.1817 -153.066 main 401 336 P_________P___ EP061989 16.1921 -152.998 HU 62 0 16.1622 -153.119 4 62 14 306
1989190N13261 1989 55 EP CP DALILIA 1989-07-19 18:00:00 TS 16.5887 -153.681 60 hurdat_epa main 331 262 O_________P___ hurdat_epa EP061989 16.6000 -153.600 TS 60 0 16.5435 -153.804 4 60 15 301
1989190N13261 1989 55 EP CP DALILIA 1989-07-19 21:00:00 TS 16.9593 -154.432 main 253 186 P_________P___ EP061989 16.9203 -154.385 TS 57 0 16.9278 -154.513 4 57 16 298
1989190N13261 1989 55 EP CP DALILIA 1989-07-20 00:00:00 TS 17.3600 -155.200 55 hurdat_epa main 175 112 O_________O___ hurdat_epa EP061989 17.3000 -155.200 TS 55 0 17.3000 -155.200 2 55 17 304
1989190N13261 1989 55 EP CP DALILIA 1989-07-20 03:00:00 TS 17.8899 -155.872 main 113 92 P_________P___ EP061989 17.9447 -155.894 TS 55 0 17.6431 -155.841 2 55 16 309
1989190N13261 1989 55 EP CP DALILIA 1989-07-20 06:00:00 TS 18.3544 -156.470 55 hurdat_epa main 99 99 O_________P___ hurdat_epa EP061989 18.5000 -156.500 TS 55 0 17.9722 -156.448 2 55 13 301
1989190N13261 1989 55 EP CP DALILIA 1989-07-20 09:00:00 TS 18.5344 -157.015 main 133 133 P_________P___ EP061989 18.5724 -157.061 TS 55 0 18.2902 -157.006 2 55 10 289
1989190N13261 1989 55 EP CP DALILIA 1989-07-20 12:00:00 TS 18.6800 -157.460 55 hurdat_epa main 174 174 O_________O___ hurdat_epa EP061989 18.6000 -157.500 TS 55 0 18.6000 -157.500 2 55 9 306
1989190N13261 1989 55 EP CP DALILIA 1989-07-20 15:00:00 TS 19.0620 -157.768 main 190 186 P_________P___ EP061989 19.0346 -157.757 TS 52 0 18.9266 -157.919 2 52 10 324
1989190N13261 1989 55 EP CP DALILIA 1989-07-20 18:00:00 TS 19.4488 -158.055 50 hurdat_epa main 212 190 O_________P___ hurdat_epa EP061989 19.5000 -158.000 TS 50 0 19.2438 -158.276 2 50 9 313
1989190N13261 1989 55 EP CP DALILIA 1989-07-20 21:00:00 TS 19.6412 -158.437 main 192 182 P_________P___ EP061989 19.6723 -158.391 TS 47 0 19.5393 -158.594 2 47 9 294
1989190N13261 1989 55 EP CP DALILIA 1989-07-21 00:00:00 TS 19.8000 -158.900 45 hurdat_epa main 187 182 O_________O___ hurdat_epa EP061989 19.8000 -158.900 TS 45 0 19.8000 -158.900 2 45 10 296
1989190N13261 1989 55 EP CP DALILIA 1989-07-21 03:00:00 TS 20.0825 -159.414 main 190 181 P_________P___ EP061989 20.1158 -159.617 TS 45 0 20.0093 -158.941 2 42 11 299
1989190N13261 1989 55 EP CP DALILIA 1989-07-21 06:00:00 TS 20.3370 -159.924 45 hurdat_epa main 186 178 O_________P___ hurdat_epa EP061989 20.4000 -160.200 TS 45 0 20.1852 -159.018 2 40 9 295
1989190N13261 1989 55 EP CP DALILIA 1989-07-21 09:00:00 TS 20.4402 -160.238 main 183 175 P_________P___ EP061989 20.4697 -160.051 TS 40 0 20.3441 -159.361 2 37 8 281
1989190N13261 1989 55 EP CP DALILIA 1989-07-21 12:00:00 TS 20.5000 -160.800 35 hurdat_epa main 197 197 O_________O___ hurdat_epa EP061989 20.5000 -160.200 TS 35 0 20.5000 -160.200 2 35 16 276
1989190N13261 1989 55 EP CP DALILIA 1989-07-21 15:00:00 TS 20.5997 -161.948 main 267 267 P_________P___ EP061989 20.6254 -161.486 TS 30 -1 20.6564 -161.667 2 30 25 275
1989190N13261 1989 55 EP CP DALILIA 1989-07-21 18:00:00 TS 20.7200 -163.460 25 hurdat_epa main 409 O_________O___ hurdat_epa EP061989 20.8000 -163.500 TD 25 -1 20.8000 -163.500 1 25 28 275

About IBTrACS Database

This database is a web-friendly format of International Best Track Archive for Climate Stewardship (IBTrACS), a global best track data archive curated by NOAA dating back to 1842.

Updated: 2021-11-26